sensor_id;sensor_type;location;lat;lon;timestamp;P1;durP1;ratioP1;P2;durP2;ratioP2
9722;SDS011;4900;49.306;8.500;2024-01-06T00:01:45;4.33;;;2.70;;
9722;SDS011;4900;49.306;8.500;2024-01-06T00:04:11;6.83;;;2.73;;
9722;SDS011;4900;49.306;8.500;2024-01-06T00:06:36;3.60;;;2.63;;
9722;SDS011;4900;49.306;8.500;2024-01-06T00:09:02;4.57;;;2.57;;
9722;SDS011;4900;49.306;8.500;2024-01-06T00:11:28;3.70;;;2.13;;
9722;SDS011;4900;49.306;8.500;2024-01-06T00:13:53;4.63;;;2.20;;
9722;SDS011;4900;49.306;8.500;2024-01-06T00:16:19;4.33;;;2.13;;
9722;SDS011;4900;49.306;8.500;2024-01-06T00:18:45;5.23;;;2.70;;
9722;SDS011;4900;49.306;8.500;2024-01-06T00:21:13;2.87;;;2.10;;
9722;SDS011;4900;49.306;8.500;2024-01-06T00:23:39;3.97;;;2.30;;
9722;SDS011;4900;49.306;8.500;2024-01-06T00:26:05;4.00;;;2.40;;
9722;SDS011;4900;49.306;8.500;2024-01-06T00:28:32;3.77;;;2.10;;
9722;SDS011;4900;49.306;8.500;2024-01-06T00:30:57;2.90;;;2.30;;
9722;SDS011;4900;49.306;8.500;2024-01-06T00:33:23;3.83;;;2.70;;
9722;SDS011;4900;49.306;8.500;2024-01-06T00:35:48;7.67;;;3.10;;
9722;SDS011;4900;49.306;8.500;2024-01-06T00:38:14;7.33;;;3.00;;
9722;SDS011;4900;49.306;8.500;2024-01-06T00:40:39;3.90;;;2.83;;
9722;SDS011;4900;49.306;8.500;2024-01-06T00:43:05;4.63;;;2.80;;
9722;SDS011;4900;49.306;8.500;2024-01-06T00:45:30;4.10;;;2.50;;
9722;SDS011;4900;49.306;8.500;2024-01-06T00:47:56;3.57;;;2.50;;
9722;SDS011;4900;49.306;8.500;2024-01-06T00:50:22;3.43;;;2.60;;
9722;SDS011;4900;49.306;8.500;2024-01-06T00:52:47;4.70;;;2.30;;
9722;SDS011;4900;49.306;8.500;2024-01-06T00:55:13;3.53;;;1.90;;
9722;SDS011;4900;49.306;8.500;2024-01-06T00:57:39;3.17;;;2.20;;
9722;SDS011;4900;49.306;8.500;2024-01-06T01:00:05;2.63;;;1.93;;
9722;SDS011;4900;49.306;8.500;2024-01-06T01:02:31;4.10;;;2.10;;
9722;SDS011;4900;49.306;8.500;2024-01-06T01:04:57;3.70;;;2.37;;
9722;SDS011;4900;49.306;8.500;2024-01-06T01:07:22;5.40;;;2.27;;
9722;SDS011;4900;49.306;8.500;2024-01-06T01:09:48;4.97;;;2.40;;
9722;SDS011;4900;49.306;8.500;2024-01-06T01:12:14;3.00;;;2.30;;
9722;SDS011;4900;49.306;8.500;2024-01-06T01:14:39;2.73;;;2.10;;
9722;SDS011;4900;49.306;8.500;2024-01-06T01:17:05;3.87;;;2.40;;
9722;SDS011;4900;49.306;8.500;2024-01-06T01:19:30;4.53;;;3.53;;
9722;SDS011;4900;49.306;8.500;2024-01-06T01:21:56;4.43;;;3.10;;
9722;SDS011;4900;49.306;8.500;2024-01-06T01:24:21;5.40;;;4.03;;
9722;SDS011;4900;49.306;8.500;2024-01-06T01:26:47;5.13;;;3.60;;
9722;SDS011;4900;49.306;8.500;2024-01-06T01:29:13;6.27;;;4.00;;
9722;SDS011;4900;49.306;8.500;2024-01-06T01:31:39;5.17;;;3.93;;
9722;SDS011;4900;49.306;8.500;2024-01-06T01:34:04;5.57;;;4.40;;
9722;SDS011;4900;49.306;8.500;2024-01-06T01:36:30;5.47;;;3.47;;
9722;SDS011;4900;49.306;8.500;2024-01-06T01:38:57;5.30;;;3.63;;
9722;SDS011;4900;49.306;8.500;2024-01-06T01:41:24;5.20;;;3.53;;
9722;SDS011;4900;49.306;8.500;2024-01-06T01:43:49;6.50;;;3.83;;
9722;SDS011;4900;49.306;8.500;2024-01-06T01:46:23;6.97;;;4.33;;
9722;SDS011;4900;49.306;8.500;2024-01-06T01:48:53;7.30;;;4.57;;
9722;SDS011;4900;49.306;8.500;2024-01-06T01:51:20;5.60;;;3.70;;
9722;SDS011;4900;49.306;8.500;2024-01-06T01:53:46;6.70;;;4.27;;
9722;SDS011;4900;49.306;8.500;2024-01-06T01:56:12;6.27;;;4.20;;
9722;SDS011;4900;49.306;8.500;2024-01-06T01:58:38;5.33;;;4.20;;
9722;SDS011;4900;49.306;8.500;2024-01-06T02:01:04;8.07;;;4.63;;
9722;SDS011;4900;49.306;8.500;2024-01-06T02:03:30;5.87;;;4.23;;
9722;SDS011;4900;49.306;8.500;2024-01-06T02:05:55;4.87;;;3.80;;
9722;SDS011;4900;49.306;8.500;2024-01-06T02:08:21;5.27;;;3.97;;
9722;SDS011;4900;49.306;8.500;2024-01-06T02:10:47;5.60;;;3.63;;
9722;SDS011;4900;49.306;8.500;2024-01-06T02:13:13;5.13;;;3.90;;
9722;SDS011;4900;49.306;8.500;2024-01-06T02:15:38;4.07;;;3.27;;
9722;SDS011;4900;49.306;8.500;2024-01-06T02:18:04;4.83;;;3.43;;
9722;SDS011;4900;49.306;8.500;2024-01-06T02:20:30;4.70;;;3.60;;
9722;SDS011;4900;49.306;8.500;2024-01-06T02:22:56;4.73;;;3.27;;
9722;SDS011;4900;49.306;8.500;2024-01-06T02:25:23;4.80;;;3.50;;
9722;SDS011;4900;49.306;8.500;2024-01-06T02:27:49;4.63;;;3.33;;
9722;SDS011;4900;49.306;8.500;2024-01-06T02:30:14;4.30;;;2.60;;
9722;SDS011;4900;49.306;8.500;2024-01-06T02:32:40;4.03;;;2.80;;
9722;SDS011;4900;49.306;8.500;2024-01-06T02:35:05;3.90;;;2.70;;
9722;SDS011;4900;49.306;8.500;2024-01-06T02:37:31;4.20;;;2.80;;
9722;SDS011;4900;49.306;8.500;2024-01-06T02:39:56;3.70;;;2.70;;
9722;SDS011;4900;49.306;8.500;2024-01-06T02:42:22;4.57;;;3.00;;
9722;SDS011;4900;49.306;8.500;2024-01-06T02:44:49;4.50;;;3.20;;
9722;SDS011;4900;49.306;8.500;2024-01-06T02:47:14;5.53;;;3.20;;
9722;SDS011;4900;49.306;8.500;2024-01-06T02:49:39;5.77;;;3.33;;
9722;SDS011;4900;49.306;8.500;2024-01-06T02:52:05;5.23;;;3.10;;
9722;SDS011;4900;49.306;8.500;2024-01-06T02:54:31;6.00;;;3.77;;
9722;SDS011;4900;49.306;8.500;2024-01-06T02:56:56;6.23;;;3.87;;
9722;SDS011;4900;49.306;8.500;2024-01-06T02:59:21;9.43;;;4.60;;
9722;SDS011;4900;49.306;8.500;2024-01-06T03:01:47;8.67;;;4.73;;
9722;SDS011;4900;49.306;8.500;2024-01-06T03:04:12;6.80;;;4.27;;
9722;SDS011;4900;49.306;8.500;2024-01-06T03:06:37;7.10;;;4.70;;
9722;SDS011;4900;49.306;8.500;2024-01-06T03:09:04;6.57;;;4.10;;
9722;SDS011;4900;49.306;8.500;2024-01-06T03:11:31;7.43;;;4.43;;
9722;SDS011;4900;49.306;8.500;2024-01-06T03:13:56;8.50;;;4.53;;
9722;SDS011;4900;49.306;8.500;2024-01-06T03:16:22;7.37;;;4.50;;
9722;SDS011;4900;49.306;8.500;2024-01-06T03:18:47;6.53;;;4.33;;
9722;SDS011;4900;49.306;8.500;2024-01-06T03:21:17;8.47;;;4.60;;
9722;SDS011;4900;49.306;8.500;2024-01-06T03:23:43;8.07;;;5.07;;
9722;SDS011;4900;49.306;8.500;2024-01-06T03:26:08;7.87;;;4.50;;
9722;SDS011;4900;49.306;8.500;2024-01-06T03:28:34;7.20;;;4.17;;
9722;SDS011;4900;49.306;8.500;2024-01-06T03:30:59;7.57;;;4.00;;
9722;SDS011;4900;49.306;8.500;2024-01-06T03:33:25;6.90;;;3.70;;
9722;SDS011;4900;49.306;8.500;2024-01-06T03:35:50;6.40;;;3.73;;
9722;SDS011;4900;49.306;8.500;2024-01-06T03:38:15;7.47;;;4.43;;
9722;SDS011;4900;49.306;8.500;2024-01-06T03:40:41;6.03;;;4.00;;
9722;SDS011;4900;49.306;8.500;2024-01-06T03:43:06;6.30;;;4.10;;
9722;SDS011;4900;49.306;8.500;2024-01-06T03:45:32;6.53;;;3.97;;
9722;SDS011;4900;49.306;8.500;2024-01-06T03:47:57;6.23;;;3.70;;
9722;SDS011;4900;49.306;8.500;2024-01-06T03:50:22;6.50;;;3.90;;
9722;SDS011;4900;49.306;8.500;2024-01-06T03:52:48;7.03;;;3.93;;
9722;SDS011;4900;49.306;8.500;2024-01-06T03:55:14;6.33;;;3.60;;
9722;SDS011;4900;49.306;8.500;2024-01-06T03:57:40;5.93;;;3.90;;
9722;SDS011;4900;49.306;8.500;2024-01-06T04:00:06;4.43;;;3.10;;
9722;SDS011;4900;49.306;8.500;2024-01-06T04:02:32;5.47;;;3.83;;
9722;SDS011;4900;49.306;8.500;2024-01-06T04:04:58;5.07;;;3.47;;
9722;SDS011;4900;49.306;8.500;2024-01-06T04:07:23;3.90;;;3.13;;
9722;SDS011;4900;49.306;8.500;2024-01-06T04:09:48;7.50;;;3.10;;
9722;SDS011;4900;49.306;8.500;2024-01-06T04:12:14;5.33;;;3.53;;
9722;SDS011;4900;49.306;8.500;2024-01-06T04:14:39;5.67;;;3.77;;
9722;SDS011;4900;49.306;8.500;2024-01-06T04:17:05;7.80;;;3.63;;
9722;SDS011;4900;49.306;8.500;2024-01-06T04:19:30;5.27;;;3.30;;
9722;SDS011;4900;49.306;8.500;2024-01-06T04:21:56;4.73;;;3.37;;
9722;SDS011;4900;49.306;8.500;2024-01-06T04:24:22;8.43;;;4.30;;
9722;SDS011;4900;49.306;8.500;2024-01-06T04:26:47;6.13;;;4.43;;
9722;SDS011;4900;49.306;8.500;2024-01-06T04:29:13;5.33;;;4.37;;
9722;SDS011;4900;49.306;8.500;2024-01-06T04:31:40;6.17;;;4.20;;
9722;SDS011;4900;49.306;8.500;2024-01-06T04:34:05;5.27;;;4.00;;
9722;SDS011;4900;49.306;8.500;2024-01-06T04:36:31;5.80;;;4.10;;
9722;SDS011;4900;49.306;8.500;2024-01-06T04:38:56;5.50;;;3.90;;
9722;SDS011;4900;49.306;8.500;2024-01-06T04:41:22;6.37;;;3.97;;
9722;SDS011;4900;49.306;8.500;2024-01-06T04:43:47;5.50;;;3.67;;
9722;SDS011;4900;49.306;8.500;2024-01-06T04:46:12;4.63;;;3.20;;
9722;SDS011;4900;49.306;8.500;2024-01-06T04:48:40;5.43;;;3.60;;
9722;SDS011;4900;49.306;8.500;2024-01-06T04:51:06;3.90;;;2.87;;
9722;SDS011;4900;49.306;8.500;2024-01-06T04:53:35;6.00;;;3.50;;
9722;SDS011;4900;49.306;8.500;2024-01-06T04:56:03;3.87;;;2.70;;
9722;SDS011;4900;49.306;8.500;2024-01-06T04:58:29;5.03;;;3.20;;
9722;SDS011;4900;49.306;8.500;2024-01-06T05:00:54;5.83;;;3.30;;
9722;SDS011;4900;49.306;8.500;2024-01-06T05:03:20;5.53;;;3.17;;
9722;SDS011;4900;49.306;8.500;2024-01-06T05:05:45;4.20;;;3.07;;
9722;SDS011;4900;49.306;8.500;2024-01-06T05:08:10;6.30;;;3.10;;
9722;SDS011;4900;49.306;8.500;2024-01-06T05:10:36;7.60;;;3.13;;
9722;SDS011;4900;49.306;8.500;2024-01-06T05:13:01;6.77;;;3.47;;
9722;SDS011;4900;49.306;8.500;2024-01-06T05:15:27;6.30;;;3.37;;
9722;SDS011;4900;49.306;8.500;2024-01-06T05:17:52;5.57;;;3.47;;
9722;SDS011;4900;49.306;8.500;2024-01-06T05:20:18;5.00;;;3.30;;
9722;SDS011;4900;49.306;8.500;2024-01-06T05:22:43;5.20;;;3.60;;
9722;SDS011;4900;49.306;8.500;2024-01-06T05:25:08;6.00;;;3.50;;
9722;SDS011;4900;49.306;8.500;2024-01-06T05:27:34;6.13;;;3.53;;
9722;SDS011;4900;49.306;8.500;2024-01-06T05:30:00;7.37;;;3.60;;
9722;SDS011;4900;49.306;8.500;2024-01-06T05:32:25;5.77;;;3.70;;
9722;SDS011;4900;49.306;8.500;2024-01-06T05:34:51;6.37;;;4.00;;
9722;SDS011;4900;49.306;8.500;2024-01-06T05:37:16;5.03;;;3.43;;
9722;SDS011;4900;49.306;8.500;2024-01-06T05:39:42;4.97;;;3.00;;
9722;SDS011;4900;49.306;8.500;2024-01-06T05:42:09;5.10;;;3.03;;
9722;SDS011;4900;49.306;8.500;2024-01-06T05:44:37;4.27;;;2.63;;
9722;SDS011;4900;49.306;8.500;2024-01-06T05:47:03;5.70;;;3.20;;
9722;SDS011;4900;49.306;8.500;2024-01-06T05:49:29;4.93;;;3.00;;
9722;SDS011;4900;49.306;8.500;2024-01-06T05:51:55;5.40;;;2.80;;
9722;SDS011;4900;49.306;8.500;2024-01-06T05:54:20;4.53;;;2.70;;
9722;SDS011;4900;49.306;8.500;2024-01-06T05:56:45;4.87;;;2.77;;
9722;SDS011;4900;49.306;8.500;2024-01-06T05:59:11;5.27;;;3.10;;
9722;SDS011;4900;49.306;8.500;2024-01-06T06:01:36;7.67;;;2.83;;
9722;SDS011;4900;49.306;8.500;2024-01-06T06:04:02;4.13;;;2.53;;
9722;SDS011;4900;49.306;8.500;2024-01-06T06:06:28;5.67;;;2.47;;
9722;SDS011;4900;49.306;8.500;2024-01-06T06:08:53;4.37;;;2.63;;
9722;SDS011;4900;49.306;8.500;2024-01-06T06:11:19;3.67;;;2.67;;
9722;SDS011;4900;49.306;8.500;2024-01-06T06:13:44;4.50;;;2.37;;
9722;SDS011;4900;49.306;8.500;2024-01-06T06:16:10;3.80;;;2.60;;
9722;SDS011;4900;49.306;8.500;2024-01-06T06:18:38;5.63;;;2.60;;
9722;SDS011;4900;49.306;8.500;2024-01-06T06:21:04;2.83;;;2.30;;
9722;SDS011;4900;49.306;8.500;2024-01-06T06:23:30;4.27;;;2.53;;
9722;SDS011;4900;49.306;8.500;2024-01-06T06:25:55;3.80;;;2.40;;
9722;SDS011;4900;49.306;8.500;2024-01-06T06:28:21;4.17;;;2.70;;
9722;SDS011;4900;49.306;8.500;2024-01-06T06:30:46;4.47;;;2.70;;
9722;SDS011;4900;49.306;8.500;2024-01-06T06:33:12;5.53;;;3.33;;
9722;SDS011;4900;49.306;8.500;2024-01-06T06:35:38;5.90;;;2.80;;
9722;SDS011;4900;49.306;8.500;2024-01-06T06:38:04;4.30;;;3.30;;
9722;SDS011;4900;49.306;8.500;2024-01-06T06:40:29;4.97;;;2.93;;
9722;SDS011;4900;49.306;8.500;2024-01-06T06:42:55;7.63;;;4.17;;
9722;SDS011;4900;49.306;8.500;2024-01-06T06:45:20;6.17;;;3.90;;
9722;SDS011;4900;49.306;8.500;2024-01-06T06:47:48;7.63;;;4.03;;
9722;SDS011;4900;49.306;8.500;2024-01-06T06:50:15;5.77;;;3.90;;
9722;SDS011;4900;49.306;8.500;2024-01-06T06:52:42;6.87;;;3.93;;
9722;SDS011;4900;49.306;8.500;2024-01-06T06:55:08;4.70;;;3.87;;
9722;SDS011;4900;49.306;8.500;2024-01-06T06:57:33;5.60;;;3.83;;
9722;SDS011;4900;49.306;8.500;2024-01-06T06:59:59;6.70;;;4.27;;
9722;SDS011;4900;49.306;8.500;2024-01-06T07:02:25;5.00;;;3.83;;
9722;SDS011;4900;49.306;8.500;2024-01-06T07:04:51;4.83;;;3.83;;
9722;SDS011;4900;49.306;8.500;2024-01-06T07:07:16;7.70;;;4.00;;
9722;SDS011;4900;49.306;8.500;2024-01-06T07:09:42;8.50;;;4.00;;
9722;SDS011;4900;49.306;8.500;2024-01-06T07:12:07;6.40;;;4.00;;
9722;SDS011;4900;49.306;8.500;2024-01-06T07:14:33;5.87;;;3.80;;
9722;SDS011;4900;49.306;8.500;2024-01-06T07:16:58;6.50;;;4.13;;
9722;SDS011;4900;49.306;8.500;2024-01-06T07:19:24;4.50;;;3.50;;
9722;SDS011;4900;49.306;8.500;2024-01-06T07:21:50;4.90;;;3.97;;
9722;SDS011;4900;49.306;8.500;2024-01-06T07:24:15;6.53;;;3.73;;
9722;SDS011;4900;49.306;8.500;2024-01-06T07:26:41;5.47;;;4.13;;
9722;SDS011;4900;49.306;8.500;2024-01-06T07:29:06;7.07;;;4.13;;
9722;SDS011;4900;49.306;8.500;2024-01-06T07:31:33;4.80;;;3.93;;
9722;SDS011;4900;49.306;8.500;2024-01-06T07:33:59;7.23;;;4.73;;
9722;SDS011;4900;49.306;8.500;2024-01-06T07:36:24;7.03;;;4.40;;
9722;SDS011;4900;49.306;8.500;2024-01-06T07:38:50;8.77;;;5.83;;
9722;SDS011;4900;49.306;8.500;2024-01-06T07:41:17;7.07;;;5.50;;
9722;SDS011;4900;49.306;8.500;2024-01-06T07:43:42;8.37;;;5.57;;
9722;SDS011;4900;49.306;8.500;2024-01-06T07:46:08;7.13;;;4.87;;
9722;SDS011;4900;49.306;8.500;2024-01-06T07:48:34;7.43;;;5.10;;
9722;SDS011;4900;49.306;8.500;2024-01-06T07:51:01;7.10;;;5.70;;
9722;SDS011;4900;49.306;8.500;2024-01-06T07:53:27;6.90;;;5.53;;
9722;SDS011;4900;49.306;8.500;2024-01-06T07:55:53;7.57;;;5.37;;
9722;SDS011;4900;49.306;8.500;2024-01-06T07:58:18;7.13;;;4.90;;
9722;SDS011;4900;49.306;8.500;2024-01-06T08:00:43;5.97;;;4.83;;
9722;SDS011;4900;49.306;8.500;2024-01-06T08:03:09;8.50;;;5.40;;
9722;SDS011;4900;49.306;8.500;2024-01-06T08:05:36;7.73;;;5.13;;
9722;SDS011;4900;49.306;8.500;2024-01-06T08:08:02;7.60;;;4.87;;
9722;SDS011;4900;49.306;8.500;2024-01-06T08:10:29;7.03;;;4.77;;
9722;SDS011;4900;49.306;8.500;2024-01-06T08:12:54;6.93;;;4.30;;
9722;SDS011;4900;49.306;8.500;2024-01-06T08:15:20;7.73;;;4.20;;
9722;SDS011;4900;49.306;8.500;2024-01-06T08:17:45;5.43;;;3.67;;
9722;SDS011;4900;49.306;8.500;2024-01-06T08:20:12;5.87;;;4.07;;
9722;SDS011;4900;49.306;8.500;2024-01-06T08:22:38;6.53;;;3.93;;
9722;SDS011;4900;49.306;8.500;2024-01-06T08:25:04;5.77;;;3.90;;
9722;SDS011;4900;49.306;8.500;2024-01-06T08:27:31;5.67;;;3.60;;
9722;SDS011;4900;49.306;8.500;2024-01-06T08:29:57;6.13;;;3.40;;
9722;SDS011;4900;49.306;8.500;2024-01-06T08:32:22;7.40;;;3.80;;
9722;SDS011;4900;49.306;8.500;2024-01-06T08:34:47;5.47;;;3.67;;
9722;SDS011;4900;49.306;8.500;2024-01-06T08:37:13;6.67;;;3.90;;
9722;SDS011;4900;49.306;8.500;2024-01-06T08:39:39;6.60;;;4.00;;
9722;SDS011;4900;49.306;8.500;2024-01-06T08:42:04;4.73;;;3.87;;
9722;SDS011;4900;49.306;8.500;2024-01-06T08:44:30;8.50;;;4.40;;
9722;SDS011;4900;49.306;8.500;2024-01-06T08:46:55;7.10;;;4.47;;
9722;SDS011;4900;49.306;8.500;2024-01-06T08:49:21;6.30;;;4.23;;
9722;SDS011;4900;49.306;8.500;2024-01-06T08:51:47;7.17;;;4.70;;
9722;SDS011;4900;49.306;8.500;2024-01-06T08:54:13;5.13;;;3.70;;
9722;SDS011;4900;49.306;8.500;2024-01-06T08:56:38;7.73;;;4.57;;
9722;SDS011;4900;49.306;8.500;2024-01-06T08:59:04;7.43;;;5.03;;
9722;SDS011;4900;49.306;8.500;2024-01-06T09:01:29;8.00;;;4.63;;
9722;SDS011;4900;49.306;8.500;2024-01-06T09:03:56;7.73;;;5.07;;
9722;SDS011;4900;49.306;8.500;2024-01-06T09:06:22;6.57;;;4.60;;
9722;SDS011;4900;49.306;8.500;2024-01-06T09:08:48;7.03;;;4.87;;
9722;SDS011;4900;49.306;8.500;2024-01-06T09:11:14;9.53;;;5.07;;
9722;SDS011;4900;49.306;8.500;2024-01-06T09:13:39;5.83;;;4.57;;
9722;SDS011;4900;49.306;8.500;2024-01-06T09:16:05;6.67;;;4.50;;
9722;SDS011;4900;49.306;8.500;2024-01-06T09:18:30;7.07;;;5.20;;
9722;SDS011;4900;49.306;8.500;2024-01-06T09:20:57;7.07;;;5.30;;
9722;SDS011;4900;49.306;8.500;2024-01-06T09:23:23;6.73;;;4.70;;
9722;SDS011;4900;49.306;8.500;2024-01-06T09:25:48;7.97;;;4.43;;
9722;SDS011;4900;49.306;8.500;2024-01-06T09:28:16;9.03;;;4.67;;
9722;SDS011;4900;49.306;8.500;2024-01-06T09:30:41;34.20;;;6.37;;
9722;SDS011;4900;49.306;8.500;2024-01-06T09:33:06;10.13;;;5.60;;
9722;SDS011;4900;49.306;8.500;2024-01-06T09:35:35;9.93;;;4.63;;
9722;SDS011;4900;49.306;8.500;2024-01-06T09:38:00;6.27;;;4.80;;
9722;SDS011;4900;49.306;8.500;2024-01-06T09:40:26;7.30;;;4.80;;
9722;SDS011;4900;49.306;8.500;2024-01-06T09:42:52;8.93;;;5.37;;
9722;SDS011;4900;49.306;8.500;2024-01-06T09:45:21;6.70;;;4.90;;
9722;SDS011;4900;49.306;8.500;2024-01-06T09:47:50;10.50;;;5.33;;
9722;SDS011;4900;49.306;8.500;2024-01-06T09:50:20;8.20;;;5.10;;
9722;SDS011;4900;49.306;8.500;2024-01-06T09:52:46;7.47;;;4.67;;
9722;SDS011;4900;49.306;8.500;2024-01-06T09:55:24;6.20;;;4.50;;
9722;SDS011;4900;49.306;8.500;2024-01-06T09:57:52;7.43;;;4.47;;
9722;SDS011;4900;49.306;8.500;2024-01-06T10:00:18;6.13;;;4.17;;
9722;SDS011;4900;49.306;8.500;2024-01-06T10:02:45;6.97;;;5.60;;
9722;SDS011;4900;49.306;8.500;2024-01-06T10:05:11;6.57;;;5.53;;
9722;SDS011;4900;49.306;8.500;2024-01-06T10:07:41;10.20;;;7.00;;
9722;SDS011;4900;49.306;8.500;2024-01-06T10:10:07;9.27;;;5.90;;
9722;SDS011;4900;49.306;8.500;2024-01-06T10:12:32;5.77;;;4.57;;
9722;SDS011;4900;49.306;8.500;2024-01-06T10:14:58;10.87;;;7.20;;
9722;SDS011;4900;49.306;8.500;2024-01-06T10:17:23;9.43;;;7.17;;
9722;SDS011;4900;49.306;8.500;2024-01-06T10:19:49;9.67;;;7.20;;
9722;SDS011;4900;49.306;8.500;2024-01-06T10:22:14;8.23;;;5.67;;
9722;SDS011;4900;49.306;8.500;2024-01-06T10:24:40;7.63;;;5.37;;
9722;SDS011;4900;49.306;8.500;2024-01-06T10:27:05;6.53;;;4.73;;
9722;SDS011;4900;49.306;8.500;2024-01-06T10:29:31;5.33;;;4.30;;
9722;SDS011;4900;49.306;8.500;2024-01-06T10:31:57;7.70;;;4.50;;
9722;SDS011;4900;49.306;8.500;2024-01-06T10:34:23;5.43;;;3.97;;
9722;SDS011;4900;49.306;8.500;2024-01-06T10:36:49;6.43;;;4.00;;
9722;SDS011;4900;49.306;8.500;2024-01-06T10:39:16;5.60;;;3.87;;
9722;SDS011;4900;49.306;8.500;2024-01-06T10:41:43;6.50;;;4.30;;
9722;SDS011;4900;49.306;8.500;2024-01-06T10:44:09;6.53;;;4.60;;
9722;SDS011;4900;49.306;8.500;2024-01-06T10:46:36;6.77;;;5.00;;
9722;SDS011;4900;49.306;8.500;2024-01-06T10:49:04;9.47;;;6.40;;
9722;SDS011;4900;49.306;8.500;2024-01-06T10:51:33;8.57;;;6.00;;
9722;SDS011;4900;49.306;8.500;2024-01-06T10:54:00;7.60;;;5.57;;
9722;SDS011;4900;49.306;8.500;2024-01-06T10:56:27;7.43;;;5.63;;
9722;SDS011;4900;49.306;8.500;2024-01-06T10:58:55;6.67;;;4.87;;
9722;SDS011;4900;49.306;8.500;2024-01-06T11:01:22;7.47;;;4.70;;
9722;SDS011;4900;49.306;8.500;2024-01-06T11:03:52;7.23;;;4.67;;
9722;SDS011;4900;49.306;8.500;2024-01-06T11:06:19;7.43;;;4.90;;
9722;SDS011;4900;49.306;8.500;2024-01-06T11:08:53;6.30;;;5.13;;
9722;SDS011;4900;49.306;8.500;2024-01-06T11:11:24;8.47;;;4.43;;
9722;SDS011;4900;49.306;8.500;2024-01-06T11:13:50;7.37;;;5.03;;
9722;SDS011;4900;49.306;8.500;2024-01-06T11:16:35;5.90;;;4.50;;
9722;SDS011;4900;49.306;8.500;2024-01-06T11:19:01;8.30;;;5.37;;
9722;SDS011;4900;49.306;8.500;2024-01-06T11:21:27;6.83;;;5.20;;
9722;SDS011;4900;49.306;8.500;2024-01-06T11:24:31;6.23;;;4.97;;
9722;SDS011;4900;49.306;8.500;2024-01-06T11:26:52;7.87;;;6.00;;
9722;SDS011;4900;49.306;8.500;2024-01-06T11:29:21;6.77;;;5.13;;
9722;SDS011;4900;49.306;8.500;2024-01-06T11:34:47;7.17;;;4.70;;
9722;SDS011;4900;49.306;8.500;2024-01-06T11:37:14;5.93;;;4.87;;
9722;SDS011;4900;49.306;8.500;2024-01-06T11:39:44;6.60;;;5.20;;
9722;SDS011;4900;49.306;8.500;2024-01-06T11:42:10;7.47;;;5.57;;
9722;SDS011;4900;49.306;8.500;2024-01-06T11:44:38;8.63;;;6.00;;
9722;SDS011;4900;49.306;8.500;2024-01-06T11:47:08;5.03;;;4.40;;
9722;SDS011;4900;49.306;8.500;2024-01-06T11:49:36;5.40;;;4.07;;
9722;SDS011;4900;49.306;8.500;2024-01-06T11:52:03;6.83;;;5.17;;
9722;SDS011;4900;49.306;8.500;2024-01-06T11:54:30;5.87;;;4.87;;
9722;SDS011;4900;49.306;8.500;2024-01-06T11:56:56;8.70;;;5.73;;
9722;SDS011;4900;49.306;8.500;2024-01-06T11:59:22;6.70;;;5.43;;
9722;SDS011;4900;49.306;8.500;2024-01-06T12:01:48;8.87;;;6.27;;
9722;SDS011;4900;49.306;8.500;2024-01-06T12:04:14;9.67;;;6.63;;
9722;SDS011;4900;49.306;8.500;2024-01-06T12:06:43;10.80;;;7.33;;
9722;SDS011;4900;49.306;8.500;2024-01-06T12:09:11;10.93;;;7.67;;
9722;SDS011;4900;49.306;8.500;2024-01-06T12:11:39;10.70;;;7.47;;
9722;SDS011;4900;49.306;8.500;2024-01-06T12:14:05;11.30;;;8.07;;
9722;SDS011;4900;49.306;8.500;2024-01-06T12:16:31;8.70;;;6.80;;
9722;SDS011;4900;49.306;8.500;2024-01-06T12:18:58;9.80;;;7.77;;
9722;SDS011;4900;49.306;8.500;2024-01-06T12:21:25;9.60;;;7.73;;
9722;SDS011;4900;49.306;8.500;2024-01-06T12:23:52;11.13;;;7.37;;
9722;SDS011;4900;49.306;8.500;2024-01-06T12:26:17;10.27;;;7.43;;
9722;SDS011;4900;49.306;8.500;2024-01-06T12:28:47;12.07;;;8.17;;
9722;SDS011;4900;49.306;8.500;2024-01-06T12:31:14;7.83;;;6.30;;
9722;SDS011;4900;49.306;8.500;2024-01-06T12:33:40;7.37;;;5.77;;
9722;SDS011;4900;49.306;8.500;2024-01-06T12:36:06;8.10;;;6.23;;
9722;SDS011;4900;49.306;8.500;2024-01-06T12:38:34;8.10;;;6.10;;
9722;SDS011;4900;49.306;8.500;2024-01-06T12:41:00;8.50;;;5.83;;
9722;SDS011;4900;49.306;8.500;2024-01-06T12:43:25;9.47;;;6.30;;
9722;SDS011;4900;49.306;8.500;2024-01-06T12:45:52;8.00;;;6.07;;
9722;SDS011;4900;49.306;8.500;2024-01-06T12:48:18;8.97;;;7.30;;
9722;SDS011;4900;49.306;8.500;2024-01-06T12:50:44;9.33;;;7.73;;
9722;SDS011;4900;49.306;8.500;2024-01-06T12:53:09;9.73;;;7.10;;
9722;SDS011;4900;49.306;8.500;2024-01-06T12:55:37;11.10;;;8.27;;
9722;SDS011;4900;49.306;8.500;2024-01-06T12:58:02;8.93;;;7.40;;
9722;SDS011;4900;49.306;8.500;2024-01-06T13:00:29;11.17;;;7.77;;
9722;SDS011;4900;49.306;8.500;2024-01-06T13:02:55;9.53;;;7.93;;
9722;SDS011;4900;49.306;8.500;2024-01-06T13:05:21;10.47;;;8.30;;
9722;SDS011;4900;49.306;8.500;2024-01-06T13:07:48;11.70;;;8.00;;
9722;SDS011;4900;49.306;8.500;2024-01-06T13:10:14;8.00;;;7.20;;
9722;SDS011;4900;49.306;8.500;2024-01-06T13:12:40;8.73;;;7.30;;
9722;SDS011;4900;49.306;8.500;2024-01-06T13:15:05;11.13;;;8.20;;
9722;SDS011;4900;49.306;8.500;2024-01-06T13:17:39;9.63;;;7.40;;
9722;SDS011;4900;49.306;8.500;2024-01-06T13:20:04;10.57;;;7.97;;
9722;SDS011;4900;49.306;8.500;2024-01-06T13:22:30;10.80;;;7.67;;
9722;SDS011;4900;49.306;8.500;2024-01-06T13:24:56;19.33;;;11.83;;
9722;SDS011;4900;49.306;8.500;2024-01-06T13:27:22;21.03;;;12.57;;
9722;SDS011;4900;49.306;8.500;2024-01-06T13:29:47;16.97;;;11.13;;
9722;SDS011;4900;49.306;8.500;2024-01-06T13:32:13;20.63;;;12.03;;
9722;SDS011;4900;49.306;8.500;2024-01-06T13:34:40;22.80;;;13.50;;
9722;SDS011;4900;49.306;8.500;2024-01-06T13:37:06;20.30;;;13.90;;
9722;SDS011;4900;49.306;8.500;2024-01-06T13:39:32;13.23;;;8.90;;
9722;SDS011;4900;49.306;8.500;2024-01-06T13:41:58;19.60;;;12.13;;
9722;SDS011;4900;49.306;8.500;2024-01-06T13:44:23;18.37;;;11.87;;
9722;SDS011;4900;49.306;8.500;2024-01-06T13:46:49;20.17;;;13.00;;
9722;SDS011;4900;49.306;8.500;2024-01-06T13:49:16;16.30;;;11.37;;
9722;SDS011;4900;49.306;8.500;2024-01-06T13:51:42;9.43;;;7.20;;
9722;SDS011;4900;49.306;8.500;2024-01-06T13:54:08;15.20;;;10.63;;
9722;SDS011;4900;49.306;8.500;2024-01-06T13:56:34;8.93;;;6.50;;
9722;SDS011;4900;49.306;8.500;2024-01-06T13:59:00;11.00;;;7.83;;
9722;SDS011;4900;49.306;8.500;2024-01-06T14:01:25;9.23;;;7.03;;
9722;SDS011;4900;49.306;8.500;2024-01-06T14:03:51;8.10;;;6.90;;
9722;SDS011;4900;49.306;8.500;2024-01-06T14:06:26;9.03;;;7.00;;
9722;SDS011;4900;49.306;8.500;2024-01-06T14:08:55;8.80;;;6.60;;
9722;SDS011;4900;49.306;8.500;2024-01-06T14:11:21;8.20;;;6.60;;
9722;SDS011;4900;49.306;8.500;2024-01-06T14:13:47;7.23;;;6.17;;
9722;SDS011;4900;49.306;8.500;2024-01-06T14:16:14;9.17;;;6.83;;
9722;SDS011;4900;49.306;8.500;2024-01-06T14:18:42;8.27;;;6.33;;
9722;SDS011;4900;49.306;8.500;2024-01-06T14:21:08;9.90;;;7.20;;
9722;SDS011;4900;49.306;8.500;2024-01-06T14:23:35;9.37;;;6.73;;
9722;SDS011;4900;49.306;8.500;2024-01-06T14:26:00;9.33;;;6.87;;
9722;SDS011;4900;49.306;8.500;2024-01-06T14:28:26;7.47;;;6.63;;
9722;SDS011;4900;49.306;8.500;2024-01-06T14:30:55;7.77;;;6.43;;
9722;SDS011;4900;49.306;8.500;2024-01-06T14:33:20;6.90;;;6.20;;
9722;SDS011;4900;49.306;8.500;2024-01-06T14:35:47;8.43;;;5.70;;
9722;SDS011;4900;49.306;8.500;2024-01-06T14:38:12;7.13;;;5.50;;
9722;SDS011;4900;49.306;8.500;2024-01-06T14:40:38;7.53;;;5.67;;
9722;SDS011;4900;49.306;8.500;2024-01-06T14:43:03;7.60;;;5.60;;
9722;SDS011;4900;49.306;8.500;2024-01-06T14:45:29;6.77;;;5.73;;
9722;SDS011;4900;49.306;8.500;2024-01-06T14:47:55;7.70;;;6.20;;
9722;SDS011;4900;49.306;8.500;2024-01-06T14:50:21;7.03;;;5.90;;
9722;SDS011;4900;49.306;8.500;2024-01-06T14:52:46;7.97;;;6.20;;
9722;SDS011;4900;49.306;8.500;2024-01-06T14:55:12;7.87;;;5.80;;
9722;SDS011;4900;49.306;8.500;2024-01-06T14:57:37;9.67;;;7.47;;
9722;SDS011;4900;49.306;8.500;2024-01-06T15:00:04;9.80;;;6.67;;
9722;SDS011;4900;49.306;8.500;2024-01-06T15:02:30;9.90;;;6.33;;
9722;SDS011;4900;49.306;8.500;2024-01-06T15:04:55;8.83;;;6.20;;
9722;SDS011;4900;49.306;8.500;2024-01-06T15:07:21;7.90;;;5.93;;
9722;SDS011;4900;49.306;8.500;2024-01-06T15:09:48;7.83;;;6.10;;
9722;SDS011;4900;49.306;8.500;2024-01-06T15:12:13;7.50;;;5.70;;